sensor_id;sensor_type;location;lat;lon;timestamp;P1;durP1;ratioP1;P2;durP2;ratioP2
13580;SDS011;6861;46.170;7.222;2023-01-28T00:02:03;23.73;;;13.60;;
13580;SDS011;6861;46.170;7.222;2023-01-28T00:04:31;22.43;;;14.53;;
13580;SDS011;6861;46.170;7.222;2023-01-28T00:06:59;24.80;;;14.53;;
13580;SDS011;6861;46.170;7.222;2023-01-28T00:09:27;24.53;;;14.43;;
13580;SDS011;6861;46.170;7.222;2023-01-28T00:11:55;21.93;;;13.37;;
13580;SDS011;6861;46.170;7.222;2023-01-28T00:14:24;21.63;;;13.40;;
13580;SDS011;6861;46.170;7.222;2023-01-28T00:16:53;20.27;;;12.77;;
13580;SDS011;6861;46.170;7.222;2023-01-28T00:19:21;24.87;;;14.90;;
13580;SDS011;6861;46.170;7.222;2023-01-28T00:21:49;24.83;;;15.23;;
13580;SDS011;6861;46.170;7.222;2023-01-28T00:24:18;23.53;;;14.23;;
13580;SDS011;6861;46.170;7.222;2023-01-28T00:26:46;24.40;;;14.63;;
13580;SDS011;6861;46.170;7.222;2023-01-28T00:29:15;24.63;;;14.37;;
13580;SDS011;6861;46.170;7.222;2023-01-28T00:31:43;26.63;;;14.97;;
13580;SDS011;6861;46.170;7.222;2023-01-28T00:34:13;25.40;;;14.30;;
13580;SDS011;6861;46.170;7.222;2023-01-28T00:36:41;24.20;;;13.70;;
13580;SDS011;6861;46.170;7.222;2023-01-28T00:39:10;24.63;;;14.63;;
13580;SDS011;6861;46.170;7.222;2023-01-28T00:41:41;24.53;;;15.03;;
13580;SDS011;6861;46.170;7.222;2023-01-28T00:44:09;26.33;;;15.23;;
13580;SDS011;6861;46.170;7.222;2023-01-28T00:46:38;24.20;;;14.90;;
13580;SDS011;6861;46.170;7.222;2023-01-28T00:49:07;25.30;;;14.73;;
13580;SDS011;6861;46.170;7.222;2023-01-28T00:51:36;27.00;;;14.77;;
13580;SDS011;6861;46.170;7.222;2023-01-28T00:54:05;25.30;;;15.07;;
13580;SDS011;6861;46.170;7.222;2023-01-28T00:56:33;26.40;;;15.00;;
13580;SDS011;6861;46.170;7.222;2023-01-28T00:59:02;25.40;;;14.67;;
13580;SDS011;6861;46.170;7.222;2023-01-28T01:01:30;23.30;;;14.30;;
13580;SDS011;6861;46.170;7.222;2023-01-28T01:03:58;30.30;;;15.53;;
13580;SDS011;6861;46.170;7.222;2023-01-28T01:06:30;26.20;;;14.57;;
13580;SDS011;6861;46.170;7.222;2023-01-28T01:09:00;22.10;;;13.80;;
13580;SDS011;6861;46.170;7.222;2023-01-28T01:11:29;26.40;;;14.53;;
13580;SDS011;6861;46.170;7.222;2023-01-28T01:13:58;29.80;;;14.90;;
13580;SDS011;6861;46.170;7.222;2023-01-28T01:16:27;25.07;;;14.97;;
13580;SDS011;6861;46.170;7.222;2023-01-28T01:18:58;23.20;;;13.63;;
13580;SDS011;6861;46.170;7.222;2023-01-28T01:21:27;24.07;;;14.77;;
13580;SDS011;6861;46.170;7.222;2023-01-28T01:23:56;29.70;;;15.07;;
13580;SDS011;6861;46.170;7.222;2023-01-28T01:26:25;28.07;;;16.07;;
13580;SDS011;6861;46.170;7.222;2023-01-28T01:28:53;24.40;;;14.67;;
13580;SDS011;6861;46.170;7.222;2023-01-28T01:31:22;27.83;;;15.33;;
13580;SDS011;6861;46.170;7.222;2023-01-28T01:33:50;23.17;;;13.87;;
13580;SDS011;6861;46.170;7.222;2023-01-28T01:36:19;24.17;;;14.80;;
13580;SDS011;6861;46.170;7.222;2023-01-28T01:38:51;23.60;;;15.27;;
13580;SDS011;6861;46.170;7.222;2023-01-28T01:41:26;23.83;;;14.63;;
13580;SDS011;6861;46.170;7.222;2023-01-28T01:43:56;26.77;;;14.50;;
13580;SDS011;6861;46.170;7.222;2023-01-28T01:46:31;21.97;;;13.63;;
13580;SDS011;6861;46.170;7.222;2023-01-28T01:49:05;22.33;;;13.67;;
13580;SDS011;6861;46.170;7.222;2023-01-28T01:51:41;24.53;;;13.67;;
13580;SDS011;6861;46.170;7.222;2023-01-28T01:54:12;22.70;;;13.43;;
13580;SDS011;6861;46.170;7.222;2023-01-28T01:56:43;20.20;;;13.00;;
13580;SDS011;6861;46.170;7.222;2023-01-28T01:59:18;23.57;;;13.70;;
13580;SDS011;6861;46.170;7.222;2023-01-28T02:01:50;19.30;;;13.00;;
13580;SDS011;6861;46.170;7.222;2023-01-28T02:04:21;25.50;;;15.53;;
13580;SDS011;6861;46.170;7.222;2023-01-28T02:06:51;23.60;;;14.47;;
13580;SDS011;6861;46.170;7.222;2023-01-28T02:09:21;23.07;;;13.97;;
13580;SDS011;6861;46.170;7.222;2023-01-28T02:11:52;23.30;;;14.13;;
13580;SDS011;6861;46.170;7.222;2023-01-28T02:14:23;25.37;;;14.80;;
13580;SDS011;6861;46.170;7.222;2023-01-28T02:16:57;24.90;;;15.17;;
13580;SDS011;6861;46.170;7.222;2023-01-28T02:19:26;27.60;;;15.47;;
13580;SDS011;6861;46.170;7.222;2023-01-28T02:22:00;28.87;;;16.13;;
13580;SDS011;6861;46.170;7.222;2023-01-28T02:27:32;33.50;;;16.50;;
13580;SDS011;6861;46.170;7.222;2023-01-28T02:30:08;30.70;;;15.70;;
13580;SDS011;6861;46.170;7.222;2023-01-28T02:32:43;39.33;;;19.10;;
13580;SDS011;6861;46.170;7.222;2023-01-28T02:35:21;34.57;;;17.67;;
13580;SDS011;6861;46.170;7.222;2023-01-28T02:37:57;24.70;;;14.80;;
13580;SDS011;6861;46.170;7.222;2023-01-28T02:40:31;24.57;;;15.43;;
13580;SDS011;6861;46.170;7.222;2023-01-28T02:43:28;28.17;;;15.03;;
13580;SDS011;6861;46.170;7.222;2023-01-28T02:45:59;27.00;;;15.40;;
13580;SDS011;6861;46.170;7.222;2023-01-28T02:48:54;28.10;;;15.63;;
13580;SDS011;6861;46.170;7.222;2023-01-28T02:51:24;30.93;;;16.80;;
13580;SDS011;6861;46.170;7.222;2023-01-28T02:54:03;26.50;;;15.60;;
13580;SDS011;6861;46.170;7.222;2023-01-28T02:56:40;40.57;;;19.87;;
13580;SDS011;6861;46.170;7.222;2023-01-28T02:59:12;27.03;;;15.53;;
13580;SDS011;6861;46.170;7.222;2023-01-28T03:02:02;23.80;;;14.50;;
13580;SDS011;6861;46.170;7.222;2023-01-28T03:04:37;29.40;;;15.60;;
13580;SDS011;6861;46.170;7.222;2023-01-28T03:07:11;27.80;;;15.60;;
13580;SDS011;6861;46.170;7.222;2023-01-28T03:09:41;26.20;;;14.97;;
13580;SDS011;6861;46.170;7.222;2023-01-28T03:12:13;23.77;;;14.27;;
13580;SDS011;6861;46.170;7.222;2023-01-28T03:15:03;25.10;;;14.40;;
13580;SDS011;6861;46.170;7.222;2023-01-28T03:17:56;28.23;;;16.37;;
13580;SDS011;6861;46.170;7.222;2023-01-28T03:20:47;32.37;;;18.20;;
13580;SDS011;6861;46.170;7.222;2023-01-28T03:23:36;32.43;;;16.90;;
13580;SDS011;6861;46.170;7.222;2023-01-28T03:26:26;24.90;;;14.37;;
13580;SDS011;6861;46.170;7.222;2023-01-28T03:29:14;23.03;;;13.90;;
13580;SDS011;6861;46.170;7.222;2023-01-28T03:32:03;23.87;;;14.00;;
13580;SDS011;6861;46.170;7.222;2023-01-28T03:34:50;25.93;;;14.13;;
13580;SDS011;6861;46.170;7.222;2023-01-28T03:37:37;24.97;;;14.40;;
13580;SDS011;6861;46.170;7.222;2023-01-28T03:40:06;26.67;;;15.30;;
13580;SDS011;6861;46.170;7.222;2023-01-28T03:42:34;24.93;;;15.13;;
13580;SDS011;6861;46.170;7.222;2023-01-28T03:45:03;29.20;;;16.03;;
13580;SDS011;6861;46.170;7.222;2023-01-28T03:47:33;23.43;;;14.00;;
13580;SDS011;6861;46.170;7.222;2023-01-28T03:50:03;23.20;;;14.30;;
13580;SDS011;6861;46.170;7.222;2023-01-28T03:52:32;24.63;;;14.83;;
13580;SDS011;6861;46.170;7.222;2023-01-28T03:55:00;23.23;;;14.33;;
13580;SDS011;6861;46.170;7.222;2023-01-28T03:57:38;23.03;;;13.83;;
13580;SDS011;6861;46.170;7.222;2023-01-28T04:00:07;23.93;;;14.67;;
13580;SDS011;6861;46.170;7.222;2023-01-28T04:02:37;25.90;;;15.70;;
13580;SDS011;6861;46.170;7.222;2023-01-28T04:05:08;26.43;;;15.60;;
13580;SDS011;6861;46.170;7.222;2023-01-28T04:07:39;25.67;;;14.53;;
13580;SDS011;6861;46.170;7.222;2023-01-28T04:10:08;26.67;;;15.17;;
13580;SDS011;6861;46.170;7.222;2023-01-28T04:12:36;26.20;;;15.23;;
13580;SDS011;6861;46.170;7.222;2023-01-28T04:15:05;25.30;;;14.43;;
13580;SDS011;6861;46.170;7.222;2023-01-28T04:17:45;24.67;;;14.43;;
13580;SDS011;6861;46.170;7.222;2023-01-28T04:20:15;25.73;;;14.70;;
13580;SDS011;6861;46.170;7.222;2023-01-28T04:22:44;22.80;;;14.17;;
13580;SDS011;6861;46.170;7.222;2023-01-28T04:25:12;23.53;;;13.80;;
13580;SDS011;6861;46.170;7.222;2023-01-28T04:27:40;23.17;;;13.73;;
13580;SDS011;6861;46.170;7.222;2023-01-28T04:30:09;24.80;;;14.10;;
13580;SDS011;6861;46.170;7.222;2023-01-28T04:32:38;25.63;;;14.77;;
13580;SDS011;6861;46.170;7.222;2023-01-28T04:35:06;24.27;;;15.03;;
13580;SDS011;6861;46.170;7.222;2023-01-28T04:37:36;25.93;;;14.73;;
13580;SDS011;6861;46.170;7.222;2023-01-28T04:40:05;22.30;;;14.40;;
13580;SDS011;6861;46.170;7.222;2023-01-28T04:42:34;25.03;;;14.47;;
13580;SDS011;6861;46.170;7.222;2023-01-28T04:45:02;24.60;;;14.40;;
13580;SDS011;6861;46.170;7.222;2023-01-28T04:47:31;26.17;;;14.03;;
13580;SDS011;6861;46.170;7.222;2023-01-28T04:49:59;23.57;;;13.93;;
13580;SDS011;6861;46.170;7.222;2023-01-28T04:52:27;22.87;;;13.80;;
13580;SDS011;6861;46.170;7.222;2023-01-28T04:54:56;25.23;;;14.23;;
13580;SDS011;6861;46.170;7.222;2023-01-28T04:57:26;23.73;;;13.80;;
13580;SDS011;6861;46.170;7.222;2023-01-28T04:59:54;23.00;;;14.10;;
13580;SDS011;6861;46.170;7.222;2023-01-28T05:02:22;20.67;;;13.67;;
13580;SDS011;6861;46.170;7.222;2023-01-28T05:04:50;22.37;;;14.23;;
13580;SDS011;6861;46.170;7.222;2023-01-28T05:07:18;25.13;;;16.00;;
13580;SDS011;6861;46.170;7.222;2023-01-28T05:09:46;23.67;;;14.43;;
13580;SDS011;6861;46.170;7.222;2023-01-28T05:12:15;22.43;;;14.50;;
13580;SDS011;6861;46.170;7.222;2023-01-28T05:14:43;23.83;;;14.20;;
13580;SDS011;6861;46.170;7.222;2023-01-28T05:17:11;22.63;;;12.37;;
13580;SDS011;6861;46.170;7.222;2023-01-28T05:19:40;23.33;;;14.30;;
13580;SDS011;6861;46.170;7.222;2023-01-28T05:22:08;22.57;;;14.53;;
13580;SDS011;6861;46.170;7.222;2023-01-28T05:24:36;24.20;;;13.83;;
13580;SDS011;6861;46.170;7.222;2023-01-28T05:27:04;24.20;;;13.43;;
13580;SDS011;6861;46.170;7.222;2023-01-28T05:29:34;21.97;;;12.73;;
13580;SDS011;6861;46.170;7.222;2023-01-28T05:32:02;20.30;;;12.03;;
13580;SDS011;6861;46.170;7.222;2023-01-28T05:34:30;19.63;;;12.03;;
13580;SDS011;6861;46.170;7.222;2023-01-28T05:36:58;21.83;;;13.07;;
13580;SDS011;6861;46.170;7.222;2023-01-28T05:39:26;20.40;;;12.10;;
13580;SDS011;6861;46.170;7.222;2023-01-28T05:41:54;19.17;;;11.93;;
13580;SDS011;6861;46.170;7.222;2023-01-28T05:44:22;19.40;;;11.73;;
13580;SDS011;6861;46.170;7.222;2023-01-28T05:46:52;17.80;;;11.33;;
13580;SDS011;6861;46.170;7.222;2023-01-28T05:49:20;19.40;;;10.43;;
13580;SDS011;6861;46.170;7.222;2023-01-28T05:51:48;19.33;;;10.13;;
13580;SDS011;6861;46.170;7.222;2023-01-28T05:54:16;14.83;;;9.80;;
13580;SDS011;6861;46.170;7.222;2023-01-28T05:56:44;18.73;;;10.53;;
13580;SDS011;6861;46.170;7.222;2023-01-28T05:59:13;15.03;;;9.90;;
13580;SDS011;6861;46.170;7.222;2023-01-28T06:01:42;18.37;;;10.73;;
13580;SDS011;6861;46.170;7.222;2023-01-28T06:04:11;17.30;;;10.30;;
13580;SDS011;6861;46.170;7.222;2023-01-28T06:06:39;15.43;;;9.23;;
13580;SDS011;6861;46.170;7.222;2023-01-28T06:09:07;17.87;;;10.17;;
13580;SDS011;6861;46.170;7.222;2023-01-28T06:11:35;18.60;;;10.70;;
13580;SDS011;6861;46.170;7.222;2023-01-28T06:14:03;15.97;;;9.97;;
13580;SDS011;6861;46.170;7.222;2023-01-28T06:16:31;15.03;;;9.73;;
13580;SDS011;6861;46.170;7.222;2023-01-28T06:19:00;15.63;;;9.73;;
13580;SDS011;6861;46.170;7.222;2023-01-28T06:21:30;16.10;;;9.83;;
13580;SDS011;6861;46.170;7.222;2023-01-28T06:23:58;19.27;;;10.80;;
13580;SDS011;6861;46.170;7.222;2023-01-28T06:26:26;15.33;;;9.40;;
13580;SDS011;6861;46.170;7.222;2023-01-28T06:28:54;17.33;;;10.20;;
13580;SDS011;6861;46.170;7.222;2023-01-28T06:31:22;19.57;;;10.63;;
13580;SDS011;6861;46.170;7.222;2023-01-28T06:33:50;15.77;;;9.87;;
13580;SDS011;6861;46.170;7.222;2023-01-28T06:36:18;17.70;;;9.90;;
13580;SDS011;6861;46.170;7.222;2023-01-28T06:38:48;20.70;;;11.10;;
13580;SDS011;6861;46.170;7.222;2023-01-28T06:41:16;21.17;;;11.17;;
13580;SDS011;6861;46.170;7.222;2023-01-28T06:43:44;18.30;;;10.53;;
13580;SDS011;6861;46.170;7.222;2023-01-28T06:46:12;19.40;;;10.57;;
13580;SDS011;6861;46.170;7.222;2023-01-28T06:48:40;17.03;;;9.93;;
13580;SDS011;6861;46.170;7.222;2023-01-28T06:51:08;17.57;;;10.33;;
13580;SDS011;6861;46.170;7.222;2023-01-28T06:53:36;17.63;;;11.43;;
13580;SDS011;6861;46.170;7.222;2023-01-28T06:56:06;19.17;;;12.67;;
13580;SDS011;6861;46.170;7.222;2023-01-28T06:58:35;20.70;;;13.33;;
13580;SDS011;6861;46.170;7.222;2023-01-28T07:01:03;29.33;;;24.13;;
13580;SDS011;6861;46.170;7.222;2023-01-28T07:03:31;32.57;;;17.30;;
13580;SDS011;6861;46.170;7.222;2023-01-28T07:05:59;24.13;;;13.67;;
13580;SDS011;6861;46.170;7.222;2023-01-28T07:08:27;21.83;;;13.40;;
13580;SDS011;6861;46.170;7.222;2023-01-28T07:10:55;30.90;;;18.17;;
13580;SDS011;6861;46.170;7.222;2023-01-28T07:13:25;28.90;;;16.23;;
13580;SDS011;6861;46.170;7.222;2023-01-28T07:15:53;25.30;;;14.47;;
13580;SDS011;6861;46.170;7.222;2023-01-28T07:18:21;27.97;;;16.70;;
13580;SDS011;6861;46.170;7.222;2023-01-28T07:20:49;34.37;;;18.73;;
13580;SDS011;6861;46.170;7.222;2023-01-28T07:23:17;30.53;;;16.60;;
13580;SDS011;6861;46.170;7.222;2023-01-28T07:25:45;23.43;;;13.20;;
13580;SDS011;6861;46.170;7.222;2023-01-28T07:28:13;32.53;;;20.60;;
13580;SDS011;6861;46.170;7.222;2023-01-28T07:30:49;24.47;;;16.53;;
13580;SDS011;6861;46.170;7.222;2023-01-28T07:33:19;24.33;;;14.10;;
13580;SDS011;6861;46.170;7.222;2023-01-28T07:35:47;23.73;;;14.43;;
13580;SDS011;6861;46.170;7.222;2023-01-28T07:38:15;22.47;;;13.70;;
13580;SDS011;6861;46.170;7.222;2023-01-28T07:40:43;22.27;;;13.33;;
13580;SDS011;6861;46.170;7.222;2023-01-28T07:43:11;21.83;;;12.93;;
13580;SDS011;6861;46.170;7.222;2023-01-28T07:45:40;19.93;;;11.97;;
13580;SDS011;6861;46.170;7.222;2023-01-28T07:48:10;21.37;;;13.23;;
13580;SDS011;6861;46.170;7.222;2023-01-28T07:50:40;20.00;;;12.77;;
13580;SDS011;6861;46.170;7.222;2023-01-28T07:53:09;21.17;;;11.77;;
13580;SDS011;6861;46.170;7.222;2023-01-28T07:55:38;20.77;;;11.83;;
13580;SDS011;6861;46.170;7.222;2023-01-28T07:58:06;19.40;;;12.03;;
13580;SDS011;6861;46.170;7.222;2023-01-28T08:00:37;19.43;;;12.20;;
13580;SDS011;6861;46.170;7.222;2023-01-28T08:03:06;22.30;;;11.93;;
13580;SDS011;6861;46.170;7.222;2023-01-28T08:05:40;20.87;;;12.33;;
13580;SDS011;6861;46.170;7.222;2023-01-28T08:08:11;23.87;;;13.57;;
13580;SDS011;6861;46.170;7.222;2023-01-28T08:10:39;20.40;;;11.77;;
13580;SDS011;6861;46.170;7.222;2023-01-28T08:13:09;19.57;;;12.57;;
13580;SDS011;6861;46.170;7.222;2023-01-28T08:15:38;36.53;;;18.53;;
13580;SDS011;6861;46.170;7.222;2023-01-28T08:18:07;33.83;;;16.07;;
13580;SDS011;6861;46.170;7.222;2023-01-28T08:20:40;24.97;;;14.47;;
13580;SDS011;6861;46.170;7.222;2023-01-28T08:23:10;21.10;;;12.53;;
13580;SDS011;6861;46.170;7.222;2023-01-28T08:25:40;22.43;;;12.43;;
13580;SDS011;6861;46.170;7.222;2023-01-28T08:28:09;22.20;;;12.97;;
13580;SDS011;6861;46.170;7.222;2023-01-28T08:30:37;23.60;;;13.97;;
13580;SDS011;6861;46.170;7.222;2023-01-28T08:33:06;23.00;;;13.60;;
13580;SDS011;6861;46.170;7.222;2023-01-28T08:35:35;19.43;;;12.53;;
13580;SDS011;6861;46.170;7.222;2023-01-28T08:38:06;20.07;;;11.37;;
13580;SDS011;6861;46.170;7.222;2023-01-28T08:40:34;18.70;;;12.00;;
13580;SDS011;6861;46.170;7.222;2023-01-28T08:43:03;20.17;;;12.30;;
13580;SDS011;6861;46.170;7.222;2023-01-28T08:45:31;25.97;;;16.13;;
13580;SDS011;6861;46.170;7.222;2023-01-28T08:48:00;26.10;;;15.50;;
13580;SDS011;6861;46.170;7.222;2023-01-28T08:50:31;24.70;;;15.40;;
13580;SDS011;6861;46.170;7.222;2023-01-28T08:53:02;28.80;;;17.10;;
13580;SDS011;6861;46.170;7.222;2023-01-28T08:55:33;40.30;;;23.70;;
13580;SDS011;6861;46.170;7.222;2023-01-28T08:58:02;30.23;;;19.03;;
13580;SDS011;6861;46.170;7.222;2023-01-28T09:00:32;23.67;;;15.13;;
13580;SDS011;6861;46.170;7.222;2023-01-28T09:03:01;23.93;;;15.13;;
13580;SDS011;6861;46.170;7.222;2023-01-28T09:05:32;22.97;;;14.50;;
13580;SDS011;6861;46.170;7.222;2023-01-28T09:08:00;20.53;;;12.97;;
13580;SDS011;6861;46.170;7.222;2023-01-28T09:10:29;23.00;;;14.83;;
13580;SDS011;6861;46.170;7.222;2023-01-28T09:13:01;22.83;;;14.25;;
13580;SDS011;6861;46.170;7.222;2023-01-28T09:15:32;26.97;;;15.60;;
13580;SDS011;6861;46.170;7.222;2023-01-28T09:18:00;26.20;;;16.53;;
13580;SDS011;6861;46.170;7.222;2023-01-28T09:20:28;27.90;;;16.47;;
13580;SDS011;6861;46.170;7.222;2023-01-28T09:22:57;31.50;;;18.53;;
13580;SDS011;6861;46.170;7.222;2023-01-28T09:25:26;28.05;;;17.88;;
13580;SDS011;6861;46.170;7.222;2023-01-28T09:27:54;27.58;;;16.27;;
13580;SDS011;6861;46.170;7.222;2023-01-28T09:30:25;26.70;;;16.93;;
13580;SDS011;6861;46.170;7.222;2023-01-28T09:32:53;27.80;;;16.88;;
13580;SDS011;6861;46.170;7.222;2023-01-28T09:35:23;23.98;;;16.08;;
13580;SDS011;6861;46.170;7.222;2023-01-28T09:37:53;29.25;;;16.50;;
13580;SDS011;6861;46.170;7.222;2023-01-28T09:40:27;28.40;;;17.13;;
13580;SDS011;6861;46.170;7.222;2023-01-28T09:43:02;25.23;;;16.55;;
13580;SDS011;6861;46.170;7.222;2023-01-28T09:45:46;29.92;;;17.83;;
13580;SDS011;6861;46.170;7.222;2023-01-28T09:48:16;30.25;;;19.35;;
13580;SDS011;6861;46.170;7.222;2023-01-28T09:50:49;26.40;;;16.20;;
13580;SDS011;6861;46.170;7.222;2023-01-28T09:53:19;27.52;;;16.20;;
13580;SDS011;6861;46.170;7.222;2023-01-28T09:55:52;25.60;;;16.17;;
13580;SDS011;6861;46.170;7.222;2023-01-28T09:58:22;25.73;;;16.40;;
13580;SDS011;6861;46.170;7.222;2023-01-28T10:00:53;23.05;;;15.07;;
13580;SDS011;6861;46.170;7.222;2023-01-28T10:06:22;28.75;;;17.60;;
13580;SDS011;6861;46.170;7.222;2023-01-28T10:09:09;30.05;;;16.98;;
13580;SDS011;6861;46.170;7.222;2023-01-28T10:12:02;27.42;;;16.75;;
13580;SDS011;6861;46.170;7.222;2023-01-28T10:14:48;27.65;;;16.50;;
13580;SDS011;6861;46.170;7.222;2023-01-28T10:17:25;25.33;;;16.23;;
13580;SDS011;6861;46.170;7.222;2023-01-28T10:19:56;25.00;;;16.02;;
13580;SDS011;6861;46.170;7.222;2023-01-28T10:22:29;23.75;;;15.10;;
13580;SDS011;6861;46.170;7.222;2023-01-28T10:25:01;25.40;;;15.35;;
13580;SDS011;6861;46.170;7.222;2023-01-28T10:27:34;25.20;;;16.73;;
13580;SDS011;6861;46.170;7.222;2023-01-28T10:30:13;25.60;;;15.57;;
13580;SDS011;6861;46.170;7.222;2023-01-28T10:32:48;27.73;;;17.07;;
13580;SDS011;6861;46.170;7.222;2023-01-28T10:35:19;25.98;;;16.80;;
13580;SDS011;6861;46.170;7.222;2023-01-28T10:37:48;27.50;;;17.67;;
13580;SDS011;6861;46.170;7.222;2023-01-28T10:40:19;30.47;;;18.17;;
13580;SDS011;6861;46.170;7.222;2023-01-28T10:42:47;28.80;;;16.70;;
13580;SDS011;6861;46.170;7.222;2023-01-28T10:45:16;27.27;;;16.27;;
13580;SDS011;6861;46.170;7.222;2023-01-28T10:47:49;24.87;;;15.27;;
13580;SDS011;6861;46.170;7.222;2023-01-28T10:50:21;26.53;;;16.10;;
13580;SDS011;6861;46.170;7.222;2023-01-28T10:52:52;23.67;;;14.70;;
13580;SDS011;6861;46.170;7.222;2023-01-28T10:55:20;25.08;;;15.93;;
13580;SDS011;6861;46.170;7.222;2023-01-28T10:57:50;24.17;;;14.35;;
13580;SDS011;6861;46.170;7.222;2023-01-28T11:00:23;23.63;;;14.47;;
13580;SDS011;6861;46.170;7.222;2023-01-28T11:02:54;25.70;;;14.83;;
13580;SDS011;6861;46.170;7.222;2023-01-28T11:05:24;24.10;;;15.43;;
13580;SDS011;6861;46.170;7.222;2023-01-28T11:08:05;26.37;;;15.97;;
13580;SDS011;6861;46.170;7.222;2023-01-28T11:10:39;24.13;;;14.93;;
13580;SDS011;6861;46.170;7.222;2023-01-28T11:13:13;24.50;;;15.77;;
13580;SDS011;6861;46.170;7.222;2023-01-28T11:15:46;22.70;;;14.50;;
13580;SDS011;6861;46.170;7.222;2023-01-28T11:18:18;24.73;;;15.02;;
13580;SDS011;6861;46.170;7.222;2023-01-28T11:20:51;54.75;;;32.47;;
13580;SDS011;6861;46.170;7.222;2023-01-28T11:23:23;23.60;;;15.32;;
13580;SDS011;6861;46.170;7.222;2023-01-28T11:26:00;30.63;;;17.80;;
13580;SDS011;6861;46.170;7.222;2023-01-28T11:28:32;25.70;;;16.75;;
13580;SDS011;6861;46.170;7.222;2023-01-28T11:31:02;26.20;;;16.80;;
13580;SDS011;6861;46.170;7.222;2023-01-28T11:33:35;24.00;;;15.43;;
13580;SDS011;6861;46.170;7.222;2023-01-28T11:36:06;26.20;;;16.83;;
13580;SDS011;6861;46.170;7.222;2023-01-28T11:38:46;24.98;;;16.80;;
13580;SDS011;6861;46.170;7.222;2023-01-28T11:41:16;24.20;;;16.02;;
13580;SDS011;6861;46.170;7.222;2023-01-28T11:43:52;28.05;;;18.88;;
13580;SDS011;6861;46.170;7.222;2023-01-28T11:46:28;32.33;;;20.85;;
13580;SDS011;6861;46.170;7.222;2023-01-28T11:49:13;22.27;;;14.15;;
13580;SDS011;6861;46.170;7.222;2023-01-28T11:51:51;20.23;;;12.77;;
13580;SDS011;6861;46.170;7.222;2023-01-28T11:54:28;24.30;;;16.00;;
13580;SDS011;6861;46.170;7.222;2023-01-28T11:57:09;22.52;;;14.10;;
13580;SDS011;6861;46.170;7.222;2023-01-28T11:59:49;19.95;;;13.00;;
13580;SDS011;6861;46.170;7.222;2023-01-28T12:02:27;18.20;;;12.25;;
13580;SDS011;6861;46.170;7.222;2023-01-28T12:05:17;17.98;;;11.40;;
13580;SDS011;6861;46.170;7.222;2023-01-28T12:07:59;18.15;;;11.60;;
13580;SDS011;6861;46.170;7.222;2023-01-28T12:10:33;18.55;;;11.70;;
13580;SDS011;6861;46.170;7.222;2023-01-28T12:13:15;16.55;;;11.13;;
13580;SDS011;6861;46.170;7.222;2023-01-28T12:16:03;17.40;;;10.85;;
13580;SDS011;6861;46.170;7.222;2023-01-28T12:18:54;17.25;;;10.45;;
13580;SDS011;6861;46.170;7.222;2023-01-28T12:21:35;13.38;;;9.18;;
13580;SDS011;6861;46.170;7.222;2023-01-28T12:24:21;14.27;;;9.15;;
13580;SDS011;6861;46.170;7.222;2023-01-28T12:27:03;13.07;;;8.75;;
13580;SDS011;6861;46.170;7.222;2023-01-28T12:29:39;13.35;;;8.65;;
13580;SDS011;6861;46.170;7.222;2023-01-28T12:32:17;11.35;;;8.20;;
13580;SDS011;6861;46.170;7.222;2023-01-28T12:35:08;11.52;;;8.30;;
13580;SDS011;6861;46.170;7.222;2023-01-28T12:37:54;12.98;;;8.48;;
13580;SDS011;6861;46.170;7.222;2023-01-28T12:40:32;13.85;;;8.45;;
13580;SDS011;6861;46.170;7.222;2023-01-28T12:43:13;12.82;;;8.40;;
13580;SDS011;6861;46.170;7.222;2023-01-28T12:45:47;12.60;;;8.20;;
13580;SDS011;6861;46.170;7.222;2023-01-28T12:48:21;13.25;;;8.88;;
13580;SDS011;6861;46.170;7.222;2023-01-28T12:50:56;12.95;;;8.63;;
13580;SDS011;6861;46.170;7.222;2023-01-28T12:53:36;38.30;;;21.65;;
13580;SDS011;6861;46.170;7.222;2023-01-28T12:56:09;14.23;;;9.27;;
13580;SDS011;6861;46.170;7.222;2023-01-28T12:58:43;15.13;;;8.77;;
13580;SDS011;6861;46.170;7.222;2023-01-28T13:01:17;20.50;;;11.82;;
13580;SDS011;6861;46.170;7.222;2023-01-28T13:03:50;44.60;;;21.67;;
13580;SDS011;6861;46.170;7.222;2023-01-28T13:06:24;33.25;;;17.17;;
13580;SDS011;6861;46.170;7.222;2023-01-28T13:08:59;40.50;;;20.98;;
13580;SDS011;6861;46.170;7.222;2023-01-28T13:11:36;12.13;;;8.35;;
13580;SDS011;6861;46.170;7.222;2023-01-28T13:14:05;12.25;;;7.97;;
13580;SDS011;6861;46.170;7.222;2023-01-28T13:16:34;11.88;;;8.10;;
13580;SDS011;6861;46.170;7.222;2023-01-28T13:19:04;13.80;;;8.43;;
13580;SDS011;6861;46.170;7.222;2023-01-28T13:21:34;12.88;;;8.63;;
13580;SDS011;6861;46.170;7.222;2023-01-28T13:24:31;15.15;;;9.68;;
13580;SDS011;6861;46.170;7.222;2023-01-28T13:27:09;14.77;;;9.23;;
13580;SDS011;6861;46.170;7.222;2023-01-28T13:29:39;23.27;;;12.00;;
13580;SDS011;6861;46.170;7.222;2023-01-28T13:32:26;14.75;;;9.73;;
13580;SDS011;6861;46.170;7.222;2023-01-28T13:34:57;12.27;;;8.68;;
13580;SDS011;6861;46.170;7.222;2023-01-28T13:37:28;12.82;;;8.85;;
13580;SDS011;6861;46.170;7.222;2023-01-28T13:40:05;12.40;;;8.07;;
13580;SDS011;6861;46.170;7.222;2023-01-28T13:42:55;12.48;;;8.60;;
13580;SDS011;6861;46.170;7.222;2023-01-28T13:45:26;10.57;;;7.45;;
13580;SDS011;6861;46.170;7.222;2023-01-28T13:47:57;13.32;;;8.32;;
13580;SDS011;6861;46.170;7.222;2023-01-28T13:50:32;11.80;;;7.72;;
13580;SDS011;6861;46.170;7.222;2023-01-28T13:53:13;13.40;;;8.82;;
13580;SDS011;6861;46.170;7.222;2023-01-28T13:55:52;12.85;;;8.93;;
13580;SDS011;6861;46.170;7.222;2023-01-28T14:07:48;13.82;;;7.97;;
13580;SDS011;6861;46.170;7.222;2023-01-28T14:10:32;13.68;;;8.18;;
13580;SDS011;6861;46.170;7.222;2023-01-28T14:13:19;14.02;;;8.45;;
13580;SDS011;6861;46.170;7.222;2023-01-28T14:15:57;13.60;;;8.88;;
13580;SDS011;6861;46.170;7.222;2023-01-28T14:18:44;13.13;;;8.43;;
13580;SDS011;6861;46.170;7.222;2023-01-28T14:21:14;16.95;;;9.35;;
13580;SDS011;6861;46.170;7.222;2023-01-28T14:23:46;12.90;;;8.95;;
13580;SDS011;6861;46.170;7.222;2023-01-28T14:26:18;12.15;;;8.30;;
13580;SDS011;6861;46.170;7.222;2023-01-28T14:29:03;14.40;;;8.65;;
13580;SDS011;6861;46.170;7.222;2023-01-28T14:31:42;14.93;;;9.05;;
13580;SDS011;6861;46.170;7.222;2023-01-28T14:34:15;12.73;;;8.50;;
13580;SDS011;6861;46.170;7.222;2023-01-28T14:36:50;13.57;;;9.43;;
13580;SDS011;6861;46.170;7.222;2023-01-28T14:39:22;14.55;;;9.45;;
13580;SDS011;6861;46.170;7.222;2023-01-28T14:41:54;15.50;;;8.63;;
13580;SDS011;6861;46.170;7.222;2023-01-28T14:44:30;17.48;;;11.43;;
13580;SDS011;6861;46.170;7.222;2023-01-28T14:47:06;12.02;;;8.80;;
13580;SDS011;6861;46.170;7.222;2023-01-28T14:49:50;17.00;;;9.77;;
13580;SDS011;6861;46.170;7.222;2023-01-28T14:52:36;13.20;;;8.30;;
13580;SDS011;6861;46.170;7.222;2023-01-28T14:55:31;16.48;;;10.30;;
13580;SDS011;6861;46.170;7.222;2023-01-28T14:58:08;14.20;;;8.80;;
13580;SDS011;6861;46.170;7.222;2023-01-28T15:00:51;13.98;;;9.50;;
13580;SDS011;6861;46.170;7.222;2023-01-28T15:03:20;14.43;;;9.57;;
13580;SDS011;6861;46.170;7.222;2023-01-28T15:06:00;13.85;;;8.50;;
13580;SDS011;6861;46.170;7.222;2023-01-28T15:08:29;15.23;;;9.80;;
13580;SDS011;6861;46.170;7.222;2023-01-28T15:10:57;12.25;;;8.63;;
13580;SDS011;6861;46.170;7.222;2023-01-28T15:13:29;21.13;;;11.32;;
13580;SDS011;6861;46.170;7.222;2023-01-28T15:16:02;13.87;;;8.33;;
13580;SDS011;6861;46.170;7.222;2023-01-28T15:18:32;13.43;;;8.65;;
13580;SDS011;6861;46.170;7.222;2023-01-28T15:21:02;13.95;;;8.75;;
13580;SDS011;6861;46.170;7.222;2023-01-28T15:23:31;14.43;;;9.75;;
13580;SDS011;6861;46.170;7.222;2023-01-28T15:26:06;11.30;;;7.78;;